Portada
METAR-TAF:

METAR-TAF

Aeroports :

Westerly State Airport

Westerly, Rhode Island, Estats Units d'Amèrica

latitud: 41-20-59N, longitud: 071-47-56W, altitud: 24 m

Observació

L'informe es va fer fa 11 minuts, a les 11:02 UTC
Vent 3 kt del Nord/Nord-Est
Temperatura 8°C
Humitat 93%
Pressió 1014 hPa
Visibilitat: 9.7 km
Núvols disperses a una alçada de 100 ft
Cel ennuvolat a una alçada de 7500 ft
Cel cobert a una alçada de 11000 ft
boirina

METAR: KWST 291102Z AUTO 02003KT 6SM BR SCT001 BKN075 OVC110 08/07 A2994 RMK AO2 T00780072 $

Hora: 07:13 (11:13 UTC)


TAF: manca

Observacions i pronòstics meteorològics de més de 4000 aeroports (METAR i TAF).

Les estacions disponibles són els punts grocs i vermells al mapa.

Posi el ratolí al punt desitjat per veure el nom de l'estació.

Feu clic per veure les observacions i els pronòstics meteorològics.

Per canviar el mapa: feu clic els botons verds amb una creu de color negre per apropar; al botó verd amb un guió per allunyar la imatge; o en les fletxes verdes per a mapes adjacents.


METAR-TAF: